Time;durP1;ratioP1;P1;durP2;ratioP2;P2;SDS_P1;SDS_P2;PMS_P1;PMS_P2;Temp;Humidity;BMP_temperature;BMP_pressure;BME280_temperature;BME280_humidity;BME280_pressure;Samples;Min_cycle;Max_cycle;Signal;HPM_P1;HPM_P2
2022/12/04 00:00:08;;;;;;;;;;;;;;;28.37;20.96;102148.06;5096333;28;1135;-22
2022/12/04 00:02:33;;;;;;;;;;;;;;;28.46;20.78;102148.97;5078072;28;1179;-22
2022/12/04 00:04:59;;;;;;;;;;;;;;;28.55;20.57;102147.16;5096228;28;1910;-23
2022/12/04 00:07:24;;;;;;;;;;;;;;;28.18;21.42;102152.63;5092460;28;1332;-22
2022/12/04 00:09:49;;;;;;;;;;;;;;;27.94;21.63;102139.72;5095932;28;1352;-23
2022/12/04 00:12:14;;;;;;;;;;;;;;;27.65;21.56;102140.75;5096443;28;1111;-23
2022/12/04 00:14:40;;;;;;;;;;;;;;;27.63;21.65;102139.06;5096306;28;1288;-22
2022/12/04 00:17:05;;;;;;;;;;;;;;;28.28;21.34;102141.69;5095921;28;1171;-23
2022/12/04 00:19:30;;;;;;;;;;;;;;;28.61;20.77;102146.56;5084811;28;1130;-23
2022/12/04 00:21:55;;;;;;;;;;;;;;;27.96;21.31;102148.56;5093689;28;1103;-23
2022/12/04 00:24:21;;;;;;;;;;;;;;;27.63;21.73;102158.00;5095659;28;1918;-22
2022/12/04 00:26:46;;;;;;;;;;;;;;;28.37;21.16;102150.78;5096119;28;1151;-22
2022/12/04 00:29:11;;;;;;;;;;;;;;;28.51;21.13;102154.75;5096064;28;940;-23
2022/12/04 00:31:37;;;;;;;;;;;;;;;28.56;20.77;102154.28;5096392;28;1182;-22
2022/12/04 00:34:02;;;;;;;;;;;;;;;28.53;20.98;102157.31;5095862;28;1210;-23
2022/12/04 00:36:27;;;;;;;;;;;;;;;28.05;21.67;102153.00;5096997;28;1131;-23
2022/12/04 00:38:53;;;;;;;;;;;;;;;27.97;21.81;102145.69;5099917;28;1163;-23
2022/12/04 00:41:19;;;;;;;;;;;;;;;27.67;21.69;102145.03;5100133;28;905;-22
2022/12/04 00:43:47;;;;;;;;;;;;;;;28.13;21.47;102151.41;5085941;28;1237;-22
2022/12/04 00:46:12;;;;;;;;;;;;;;;28.62;21.16;102150.94;5099958;28;1894;-23
2022/12/04 00:48:38;;;;;;;;;;;;;;;28.10;21.36;102144.44;5100009;28;1091;-23
2022/12/04 00:51:04;;;;;;;;;;;;;;;27.71;21.66;102145.59;5081902;28;1563;-22
2022/12/04 00:53:29;;;;;;;;;;;;;;;28.41;21.38;102148.59;5099704;28;885;-22
2022/12/04 00:55:54;;;;;;;;;;;;;;;28.58;21.14;102152.25;5085534;28;1107;-23
2022/12/04 00:58:20;;;;;;;;;;;;;;;28.60;21.05;102145.69;5099743;28;1139;-22
2022/12/04 01:00:45;;;;;;;;;;;;;;;28.68;20.96;102144.88;5099880;28;1174;-23
2022/12/04 01:03:10;;;;;;;;;;;;;;;28.02;21.51;102150.63;5099829;28;1139;-23
2022/12/04 01:05:42;;;;;;;;;;;;;;;27.93;21.75;102147.00;5099521;28;1902;-23
2022/12/04 01:08:08;;;;;;;;;;;;;;;27.75;21.92;102146.97;5095531;28;1147;-23
2022/12/04 01:10:33;;;;;;;;;;;;;;;27.80;21.90;102143.81;5099688;28;1155;-23
2022/12/04 01:12:58;;;;;;;;;;;;;;;28.56;21.20;102147.00;5099959;28;1083;-22
2022/12/04 01:15:23;;;;;;;;;;;;;;;28.12;21.57;102142.44;5085325;28;1191;-23
2022/12/04 01:17:49;;;;;;;;;;;;;;;27.71;21.93;102141.03;5098879;28;964;-23
2022/12/04 01:20:14;;;;;;;;;;;;;;;28.31;21.58;102138.69;5096059;28;1213;-23
2022/12/04 01:22:39;;;;;;;;;;;;;;;28.57;20.95;102151.44;5088776;28;1205;-23
2022/12/04 01:25:05;;;;;;;;;;;;;;;28.60;21.33;102148.41;5098947;28;1973;-22
2022/12/04 01:27:30;;;;;;;;;;;;;;;28.65;20.86;102147.06;5099442;28;1091;-23
2022/12/04 01:29:55;;;;;;;;;;;;;;;27.80;21.74;102144.66;5098837;28;945;-22
2022/12/04 01:32:21;;;;;;;;;;;;;;;28.12;21.91;102147.84;5099069;28;1198;-22
2022/12/04 01:34:46;;;;;;;;;;;;;;;28.51;21.41;102143.09;5099381;28;1159;-23
2022/12/04 01:37:11;;;;;;;;;;;;;;;28.71;20.99;102141.84;5099156;28;1087;-22
2022/12/04 01:39:37;;;;;;;;;;;;;;;28.47;21.14;102142.56;5099069;28;1155;-22
2022/12/04 01:42:02;;;;;;;;;;;;;;;27.79;21.82;102131.31;5093666;28;1143;-22
2022/12/04 01:44:27;;;;;;;;;;;;;;;28.19;22.11;102135.41;5091942;28;1902;-22
2022/12/04 01:46:56;;;;;;;;;;;;;;;28.63;21.63;102130.97;5060571;28;1160;-23
2022/12/04 01:49:42;;;;;;;;;;;;;;;28.79;21.22;102127.53;5098071;28;1115;-22
2022/12/04 01:52:12;;;;;;;;;;;;;;;29.03;21.07;102135.97;5085502;28;1213;-23
2022/12/04 01:54:42;;;;;;;;;;;;;;;28.48;21.70;102134.28;5060684;28;1156;-23
2022/12/04 01:57:11;;;;;;;;;;;;;;;28.30;21.98;102130.72;5092023;28;1217;-22
2022/12/04 01:59:41;;;;;;;;;;;;;;;27.96;21.83;102135.03;5080214;28;1163;-22
2022/12/04 02:02:07;;;;;;;;;;;;;;;27.94;22.11;102127.06;5080542;28;1391;-22
2022/12/04 02:04:33;;;;;;;;;;;;;;;28.58;21.39;102125.19;5098199;28;1946;-23
2022/12/04 02:06:58;;;;;;;;;;;;;;;28.36;21.95;102127.44;5098904;28;1016;-23
2022/12/04 02:09:24;;;;;;;;;;;;;;;28.27;21.96;102131.03;5098228;28;1249;-23
2022/12/04 02:12:02;;;;;;;;;;;;;;;28.29;21.84;102124.47;5098604;28;1167;-23
2022/12/04 02:14:31;;;;;;;;;;;;;;;28.42;21.58;102132.22;5080658;28;1281;-22
2022/12/04 02:16:59;;;;;;;;;;;;;;;28.25;21.83;102131.19;5097623;28;1201;-22
2022/12/04 02:19:30;;;;;;;;;;;;;;;28.31;21.99;102130.56;5098328;28;1194;-23
2022/12/04 02:21:56;;;;;;;;;;;;;;;28.97;21.31;102129.34;5098060;28;1155;-23
2022/12/04 02:24:24;;;;;;;;;;;;;;;29.20;20.98;102136.88;5098107;28;1971;-23
2022/12/04 02:26:52;;;;;;;;;;;;;;;29.32;20.65;102129.28;5098024;28;1116;-22
2022/12/04 02:29:22;;;;;;;;;;;;;;;29.15;21.03;102133.78;5079887;28;889;-24
2022/12/04 02:31:55;;;;;;;;;;;;;;;28.73;21.55;102133.56;5083677;28;1154;-22
2022/12/04 02:34:22;;;;;;;;;;;;;;;28.41;21.56;102132.38;5080411;28;1214;-23
2022/12/04 02:36:50;;;;;;;;;;;;;;;28.14;22.14;102134.16;5080190;28;1423;-22
2022/12/04 02:39:18;;;;;;;;;;;;;;;28.81;21.44;102140.91;5059852;28;1128;-23
2022/12/04 02:42:06;;;;;;;;;;;;;;;28.43;21.44;102138.44;5072659;28;896;-23
2022/12/04 02:44:46;;;;;;;;;;;;;;;28.15;22.07;102141.25;5079571;28;1897;-23
2022/12/04 02:47:12;;;;;;;;;;;;;;;28.93;21.38;102149.56;5097787;28;1154;-22
2022/12/04 02:49:39;;;;;;;;;;;;;;;29.13;21.17;102139.38;5097599;28;1190;-22
2022/12/04 02:52:06;;;;;;;;;;;;;;;29.11;21.15;102140.56;5075924;28;1347;-23
2022/12/04 02:54:33;;;;;;;;;;;;;;;29.06;21.08;102141.06;5073386;28;1192;-23
2022/12/04 02:56:58;;;;;;;;;;;;;;;28.64;21.83;102131.84;5071361;28;1245;-22
2022/12/04 02:59:25;;;;;;;;;;;;;;;28.63;21.83;102135.56;5081410;28;957;-22
2022/12/04 03:01:51;;;;;;;;;;;;;;;28.44;21.65;102127.50;5079120;28;1190;-24
2022/12/04 03:04:21;;;;;;;;;;;;;;;28.25;21.75;102128.50;5079177;28;1953;-23
2022/12/04 03:06:47;;;;;;;;;;;;;;;29.03;21.33;102135.97;5067859;28;1423;-23
2022/12/04 03:09:16;;;;;;;;;;;;;;;28.65;21.20;102133.50;5078990;28;1132;-23
2022/12/04 03:11:43;;;;;;;;;;;;;;;28.26;21.67;102123.94;5097177;28;1154;-22
2022/12/04 03:14:20;;;;;;;;;;;;;;;28.94;21.29;102132.34;5078855;28;1709;-22
2022/12/04 03:16:45;;;;;;;;;;;;;;;29.23;21.03;102125.69;5071164;28;1166;-24
2022/12/04 03:19:18;;;;;;;;;;;;;;;29.35;20.64;102128.97;5096935;28;1135;-23
2022/12/04 03:21:45;;;;;;;;;;;;;;;29.43;20.79;102136.25;5077038;28;1139;-22
2022/12/04 03:24:18;;;;;;;;;;;;;;;28.91;21.41;102144.31;5066863;28;1340;-22
2022/12/04 03:26:47;;;;;;;;;;;;;;;28.60;21.50;102140.28;5096842;28;1400;-23
2022/12/04 03:29:12;;;;;;;;;;;;;;;28.30;21.71;102125.31;5078752;28;1171;-23
2022/12/04 03:31:39;;;;;;;;;;;;;;;28.76;21.59;102132.41;5096691;28;1194;-23
2022/12/04 03:34:04;;;;;;;;;;;;;;;28.56;21.21;102140.75;5082682;28;1118;-23
2022/12/04 03:36:31;;;;;;;;;;;;;;;28.26;22.17;102129.34;5097285;28;1127;-22
2022/12/04 03:38:58;;;;;;;;;;;;;;;28.98;21.28;102139.16;5096539;28;1182;-23
2022/12/04 03:41:46;;;;;;;;;;;;;;;29.23;20.92;102139.25;5096401;28;1166;-22
2022/12/04 03:44:14;;;;;;;;;;;;;;;29.26;21.00;102133.50;5078858;28;1186;-22
2022/12/04 03:46:59;;;;;;;;;;;;;;;29.24;21.12;102132.84;5091140;28;1971;-23
2022/12/04 03:49:24;;;;;;;;;;;;;;;28.88;21.60;102141.94;5088561;28;1456;-22
2022/12/04 03:51:52;;;;;;;;;;;;;;;28.59;21.43;102135.03;5096274;28;1214;-22
2022/12/04 03:54:22;;;;;;;;;;;;;;;28.29;21.92;102126.31;5078031;28;933;-22
2022/12/04 03:56:50;;;;;;;;;;;;;;;29.01;21.40;102132.56;5078471;28;1210;-22
2022/12/04 03:59:17;;;;;;;;;;;;;;;29.29;20.83;102135.91;5075619;28;1210;-22
2022/12/04 04:01:43;;;;;;;;;;;;;;;26.45;19.45;102132.28;5082670;28;1178;-21
2022/12/04 04:04:11;;;;;;;;;;;;;;;25.47;20.82;102138.44;5078390;28;1230;-22
2022/12/04 04:06:37;;;;;;;;;;;;;;;24.02;21.51;102135.44;5078466;28;1964;-22
2022/12/04 04:09:04;;;;;;;;;;;;;;;23.45;22.07;102123.03;5096227;28;1462;-21
2022/12/04 04:11:46;;;;;;;;;;;;;;;23.30;22.72;102125.94;5078177;28;1124;-22
2022/12/04 04:25:19;;;;;;;;;;;;;;;27.65;18.14;102147.03;5080645;28;1886;-22
2022/12/04 04:27:54;;;;;;;;;;;;;;;27.84;17.93;102146.06;5078454;28;1120;-22
2022/12/04 04:30:20;;;;;;;;;;;;;;;28.02;17.94;102156.03;5095718;28;1186;-22
2022/12/04 04:32:56;;;;;;;;;;;;;;;28.05;17.79;102157.56;5078315;28;1155;-22
2022/12/04 04:35:34;;;;;;;;;;;;;;;28.15;17.79;102160.19;5077689;28;1202;-22
2022/12/04 04:38:05;;;;;;;;;;;;;;;26.23;19.22;102152.28;5096517;28;1210;-22
2022/12/04 04:40:34;;;;;;;;;;;;;;;24.68;20.99;102163.13;5095889;28;1186;-22
2022/12/04 04:43:02;;;;;;;;;;;;;;;26.13;19.87;102166.63;5095949;28;973;-22
2022/12/04 04:45:32;;;;;;;;;;;;;;;27.34;18.47;102172.50;5063646;28;1901;-22
2022/12/04 04:48:14;;;;;;;;;;;;;;;27.74;18.29;102173.16;5078502;28;1217;-22
2022/12/04 04:50:39;;;;;;;;;;;;;;;27.80;18.26;102166.31;5078052;28;1155;-22
2022/12/04 04:53:07;;;;;;;;;;;;;;;27.91;17.94;102178.75;5077605;28;1231;-22
2022/12/04 04:55:35;;;;;;;;;;;;;;;27.90;18.01;102173.47;5089685;28;1108;-22
2022/12/04 04:58:07;;;;;;;;;;;;;;;27.90;18.06;102174.34;5094808;28;1203;-22
2022/12/04 05:00:32;;;;;;;;;;;;;;;25.28;20.21;102167.88;5079847;28;1028;-21
2022/12/04 05:02:57;;;;;;;;;;;;;;;24.66;21.02;102176.72;5076723;28;1183;-21
2022/12/04 05:05:23;;;;;;;;;;;;;;;26.53;19.52;102172.03;5090818;28;1910;-21
2022/12/04 05:07:48;;;;;;;;;;;;;;;27.18;18.90;102167.75;5092754;28;1147;-21
2022/12/04 05:10:13;;;;;;;;;;;;;;;26.76;19.35;102166.28;5095670;28;1170;-22
2022/12/04 05:12:38;;;;;;;;;;;;;;;26.83;19.29;102161.16;5095883;28;1146;-21
2022/12/04 05:15:04;;;;;;;;;;;;;;;28.99;17.52;102162.53;5095313;28;1218;-21
2022/12/04 05:17:29;;;;;;;;;;;;;;;27.28;19.66;102169.59;5085831;28;2493;-22
2022/12/04 05:19:55;;;;;;;;;;;;;;;27.46;20.04;102169.63;5088920;28;1917;-21
2022/12/04 05:22:28;;;;;;;;;;;;;;;28.75;18.76;102169.47;5095670;28;1888;-21
2022/12/04 05:24:53;;;;;;;;;;;;;;;28.01;19.54;102167.00;5098673;28;1971;-21
2022/12/04 05:27:19;;;;;;;;;;;;;;;28.40;19.14;102177.50;5091532;28;1850;-21
2022/12/04 05:29:44;;;;;;;;;;;;;;;28.32;19.27;102177.41;5087988;28;2062;-21
2022/12/04 05:32:09;;;;;;;;;;;;;;;28.41;19.36;102171.09;5093698;28;1792;-21
2022/12/04 05:34:34;;;;;;;;;;;;;;;28.51;19.27;102176.41;5098684;28;1126;-21
2022/12/04 05:37:00;;;;;;;;;;;;;;;28.57;19.19;102170.38;5098453;28;1131;-22
2022/12/04 05:39:25;;;;;;;;;;;;;;;28.65;19.37;102175.00;5101748;28;1206;-22
2022/12/04 05:41:50;;;;;;;;;;;;;;;28.62;19.48;102185.28;5099205;28;1194;-22
2022/12/04 05:44:15;;;;;;;;;;;;;;;28.61;19.44;102184.44;5098165;28;1219;-22
2022/12/04 05:46:41;;;;;;;;;;;;;;;28.72;19.37;102186.03;5097814;28;1913;-22
2022/12/04 05:49:06;;;;;;;;;;;;;;;28.64;19.79;102177.84;5098302;28;1148;-22
2022/12/04 05:51:31;;;;;;;;;;;;;;;28.78;19.46;102184.56;5097773;28;1191;-22
2022/12/04 05:53:56;;;;;;;;;;;;;;;28.77;19.68;102188.25;5097525;28;1159;-21
2022/12/04 05:56:22;;;;;;;;;;;;;;;28.70;19.72;102194.31;5098162;28;1226;-22
2022/12/04 05:58:47;;;;;;;;;;;;;;;29.48;19.09;102200.84;5098348;28;1079;-22
2022/12/04 06:01:14;;;;;;;;;;;;;;;30.18;18.26;102196.94;5094304;28;2339;-24
2022/12/04 06:03:39;;;;;;;;;;;;;;;30.40;18.08;102191.88;5088641;28;1187;-22
2022/12/04 06:06:10;;;;;;;;;;;;;;;28.87;19.82;102185.44;5097897;28;1899;-22
2022/12/04 06:08:35;;;;;;;;;;;;;;;29.37;19.26;102193.84;5098165;28;1186;-21
2022/12/04 06:11:00;;;;;;;;;;;;;;;30.42;18.17;102195.28;5098471;28;1099;-22
2022/12/04 06:13:25;;;;;;;;;;;;;;;30.41;18.38;102199.00;5097231;28;1087;-22
2022/12/04 06:15:51;;;;;;;;;;;;;;;30.52;18.27;102202.38;5097717;28;1516;-22
2022/12/04 06:18:16;;;;;;;;;;;;;;;30.47;18.32;102205.63;5094081;28;1230;-22
2022/12/04 06:20:41;;;;;;;;;;;;;;;30.70;18.13;102210.34;5097834;28;1285;-23
2022/12/04 06:23:07;;;;;;;;;;;;;;;30.58;18.37;102209.00;5097375;28;1167;-22
2022/12/04 06:25:32;;;;;;;;;;;;;;;30.55;18.43;102202.91;5097433;28;1968;-22
2022/12/04 06:27:58;;;;;;;;;;;;;;;30.75;18.23;102207.09;5096872;28;1262;-22
2022/12/04 06:30:23;;;;;;;;;;;;;;;30.72;18.39;102211.00;5097246;28;1262;-23
2022/12/04 06:32:48;;;;;;;;;;;;;;;30.78;18.38;102204.88;5096934;28;2307;-22
2022/12/04 06:35:14;;;;;;;;;;;;;;;30.87;18.02;102208.47;5097393;28;1251;-22
2022/12/04 06:37:39;;;;;;;;;;;;;;;30.87;18.38;102204.91;5096885;28;1309;-23
2022/12/04 06:40:05;;;;;;;;;;;;;;;30.88;18.29;102212.88;5097423;28;1334;-23
2022/12/04 06:42:30;;;;;;;;;;;;;;;30.86;18.44;102205.94;5097129;28;1257;-24
2022/12/04 06:44:55;;;;;;;;;;;;;;;30.22;19.00;102207.47;5093923;28;1989;-22
2022/12/04 06:47:20;;;;;;;;;;;;;;;30.30;19.09;102207.47;5086724;28;1099;-23
2022/12/04 06:49:48;;;;;;;;;;;;;;;30.37;19.17;102208.50;5096984;28;1162;-23
2022/12/04 06:52:13;;;;;;;;;;;;;;;30.39;19.03;102209.19;5097490;28;1158;-22
2022/12/04 06:54:38;;;;;;;;;;;;;;;30.47;18.89;102207.47;5097051;28;1147;-22
2022/12/04 06:57:03;;;;;;;;;;;;;;;30.44;19.12;102203.25;5092025;28;1155;-23
2022/12/04 06:59:29;;;;;;;;;;;;;;;30.37;19.35;102203.06;5088610;28;1107;-23
2022/12/04 07:01:54;;;;;;;;;;;;;;;30.43;19.21;102207.81;5090290;28;2409;-23
2022/12/04 07:04:19;;;;;;;;;;;;;;;30.51;19.10;102208.84;5096959;28;1111;-22
2022/12/04 07:06:45;;;;;;;;;;;;;;;30.54;19.31;102195.78;5096429;28;1898;-23
2022/12/04 07:09:12;;;;;;;;;;;;;;;30.38;19.51;102202.03;5097082;28;1143;-23
2022/12/04 07:11:37;;;;;;;;;;;;;;;30.52;19.27;102200.53;5097134;28;1115;-23
2022/12/04 07:14:03;;;;;;;;;;;;;;;30.62;19.05;102204.91;5097039;28;1198;-24
2022/12/04 07:16:28;;;;;;;;;;;;;;;30.52;19.38;102207.81;5096351;28;1182;-23
2022/12/04 07:18:53;;;;;;;;;;;;;;;30.47;19.40;102205.63;5082412;28;1217;-23
2022/12/04 07:21:19;;;;;;;;;;;;;;;30.65;19.13;102202.72;5096897;28;1099;-22
2022/12/04 07:23:47;;;;;;;;;;;;;;;30.35;19.46;102215.97;5082427;28;1178;-22
2022/12/04 07:26:13;;;;;;;;;;;;;;;30.65;19.28;102216.28;5096948;28;1906;-23
2022/12/04 07:28:38;;;;;;;;;;;;;;;30.54;19.35;102216.66;5096922;28;1108;-23
2022/12/04 07:31:07;;;;;;;;;;;;;;;30.66;19.28;102215.25;5096053;28;1813;-23
2022/12/04 07:33:33;;;;;;;;;;;;;;;30.45;19.53;102217.69;5096627;28;1155;-25
2022/12/04 07:35:58;;;;;;;;;;;;;;;30.62;19.43;102222.06;5096621;28;1155;-23
2022/12/04 07:38:23;;;;;;;;;;;;;;;30.53;19.67;102217.69;5078632;28;1183;-23
2022/12/04 07:40:49;;;;;;;;;;;;;;;30.58;19.51;102225.31;5096553;28;1075;-23
2022/12/04 07:43:14;;;;;;;;;;;;;;;30.53;19.45;102221.22;5096548;28;1123;-23
2022/12/04 07:45:39;;;;;;;;;;;;;;;30.58;19.54;102220.69;5093097;28;1906;-23
2022/12/04 07:48:04;;;;;;;;;;;;;;;30.49;19.79;102229.88;5084868;28;1122;-24
2022/12/04 07:50:30;;;;;;;;;;;;;;;30.60;19.63;102221.38;5095694;28;1119;-22
2022/12/04 07:52:55;;;;;;;;;;;;;;;30.73;19.27;102220.84;5096596;28;1099;-23
2022/12/04 07:55:20;;;;;;;;;;;;;;;30.53;19.66;102220.38;5095854;28;1060;-27
2022/12/04 07:57:46;;;;;;;;;;;;;;;30.63;19.65;102225.66;5091630;28;1131;-23
2022/12/04 08:00:11;;;;;;;;;;;;;;;30.58;19.73;102230.72;5086141;28;1130;-23
2022/12/04 08:02:36;;;;;;;;;;;;;;;30.71;19.70;102224.78;5082234;28;2377;-23
2022/12/04 08:05:02;;;;;;;;;;;;;;;30.56;19.71;102228.19;5096343;28;1969;-23
2022/12/04 08:07:27;;;;;;;;;;;;;;;30.79;19.40;102224.75;5095683;28;1151;-23
2022/12/04 08:09:52;;;;;;;;;;;;;;;30.59;19.73;102227.84;5093474;28;1194;-24
2022/12/04 08:12:18;;;;;;;;;;;;;;;30.51;19.91;102222.41;5083669;28;1107;-23
2022/12/04 08:14:43;;;;;;;;;;;;;;;30.81;19.66;102225.47;5095648;28;1230;-23
2022/12/04 08:17:09;;;;;;;;;;;;;;;30.60;19.73;102220.53;5095631;28;1139;-23
2022/12/04 08:19:34;;;;;;;;;;;;;;;30.60;20.16;102204.22;5095484;28;1087;-23
2022/12/04 08:21:59;;;;;;;;;;;;;;;30.67;19.88;102214.25;5096238;28;1199;-22
2022/12/04 08:24:25;;;;;;;;;;;;;;;30.67;19.87;102210.69;5081752;28;1095;-26
2022/12/04 08:26:50;;;;;;;;;;;;;;;30.60;20.05;102202.38;5096057;28;1967;-23
2022/12/04 08:29:15;;;;;;;;;;;;;;;30.75;19.71;102207.94;5081707;28;1194;-23
2022/12/04 08:31:41;;;;;;;;;;;;;;;30.62;19.85;102208.50;5094292;28;2306;-23
2022/12/04 08:34:06;;;;;;;;;;;;;;;30.63;20.08;102209.34;5096078;28;1099;-24
2022/12/04 08:36:31;;;;;;;;;;;;;;;30.82;19.67;102199.13;5095495;28;1134;-23
2022/12/04 08:38:57;;;;;;;;;;;;;;;30.73;19.98;102196.41;5095926;28;1103;-25
2022/12/04 08:41:22;;;;;;;;;;;;;;;30.67;19.93;102203.41;5095740;28;1163;-23
2022/12/04 08:43:48;;;;;;;;;;;;;;;30.63;20.13;102198.47;5088040;28;1214;-22
2022/12/04 08:46:14;;;;;;;;;;;;;;;30.64;20.15;102205.59;5093200;28;1947;-23
2022/12/04 08:48:40;;;;;;;;;;;;;;;30.65;20.04;102197.28;5095905;28;1103;-23
2022/12/04 08:51:08;;;;;;;;;;;;;;;30.65;19.88;102191.00;5095332;28;1150;-23
2022/12/04 08:53:35;;;;;;;;;;;;;;;30.79;19.73;102187.59;5095825;28;1162;-23
2022/12/04 08:56:00;;;;;;;;;;;;;;;30.68;20.01;102185.22;5095512;28;1087;-22
2022/12/04 08:58:26;;;;;;;;;;;;;;;30.65;20.10;102189.13;5092246;28;1197;-23
2022/12/04 09:00:51;;;;;;;;;;;;;;;30.65;20.00;102194.56;5089321;28;1828;-24
2022/12/04 09:03:17;;;;;;;;;;;;;;;30.67;20.12;102184.38;5091546;28;1151;-23
2022/12/04 09:05:44;;;;;;;;;;;;;;;30.66;20.11;102195.41;5099423;28;1963;-22
2022/12/04 09:08:09;;;;;;;;;;;;;;;30.82;19.88;102178.25;5098940;28;1096;-22
2022/12/04 09:10:35;;;;;;;;;;;;;;;31.57;19.35;102177.97;5091565;28;1143;-24
2022/12/04 09:13:00;;;;;;;;;;;;;;;31.72;18.87;102174.47;5093220;28;1142;-24
2022/12/04 09:15:25;;;;;;;;;;;;;;;31.82;18.84;102168.78;5099082;28;1253;-24
2022/12/04 09:17:51;;;;;;;;;;;;;;;31.82;19.01;102171.50;5099179;28;1147;-23
2022/12/04 09:20:16;;;;;;;;;;;;;;;31.83;18.92;102165.88;5098778;28;1460;-23
2022/12/04 09:22:41;;;;;;;;;;;;;;;31.66;19.40;102157.03;5099113;28;1162;-22
2022/12/04 09:25:07;;;;;;;;;;;;;;;31.47;19.36;102158.31;5098493;28;1914;-22
2022/12/04 09:27:36;;;;;;;;;;;;;;;30.97;19.96;102148.50;5099029;28;1190;-22
2022/12/04 09:30:01;;;;;;;;;;;;;;;30.97;20.15;102145.78;5098860;28;1174;-22
2022/12/04 09:32:27;;;;;;;;;;;;;;;30.90;20.13;102137.47;5093647;28;2585;-22
2022/12/04 09:34:52;;;;;;;;;;;;;;;30.94;20.19;102143.41;5086879;28;1095;-23
2022/12/04 09:37:17;;;;;;;;;;;;;;;30.95;20.27;102133.41;5096589;28;1225;-22
2022/12/04 09:39:43;;;;;;;;;;;;;;;30.68;20.03;102110.00;5098337;28;1067;-22
2022/12/04 09:42:21;;;;;;;;;;;;;;;30.76;20.19;102111.84;5084492;28;1138;-22
2022/12/04 09:44:52;;;;;;;;;;;;;;;30.40;20.84;102113.16;5095606;28;1897;-22
2022/12/04 09:47:31;;;;;;;;;;;;;;;30.40;20.72;102113.16;5095914;28;1150;-22
2022/12/04 09:50:10;;;;;;;;;;;;;;;30.41;20.76;102108.56;5088276;28;1194;-22
2022/12/04 09:52:57;;;;;;;;;;;;;;;30.40;20.78;102102.28;5081234;28;1155;-23
2022/12/04 09:55:30;;;;;;;;;;;;;;;30.26;21.02;102098.41;5115172;28;1114;-22
2022/12/04 09:57:57;;;;;;;;;;;;;;;30.34;20.83;102094.84;5095663;28;1219;-22
2022/12/04 10:00:23;;;;;;;;;;;;;;;30.45;20.70;102096.31;5118442;28;1325;-22
2022/12/04 10:02:50;;;;;;;;;;;;;;;30.42;20.35;102078.53;5099947;28;1828;-22
2022/12/04 10:05:20;;;;;;;;;;;;;;;29.98;21.06;102087.88;5083065;28;1901;-22
2022/12/04 10:07:54;;;;;;;;;;;;;;;30.53;20.88;102088.16;5096174;28;1186;-23
2022/12/04 10:10:19;;;;;;;;;;;;;;;30.33;20.49;102078.72;5095715;28;1192;-22
2022/12/04 10:13:04;;;;;;;;;;;;;;;29.85;21.10;102077.53;5117844;28;1289;-23
2022/12/04 10:15:31;;;;;;;;;;;;;;;29.91;21.29;102087.72;5118148;28;1271;-23
2022/12/04 10:18:00;;;;;;;;;;;;;;;30.04;21.13;102084.50;5099488;28;1222;-26
2022/12/04 10:20:38;;;;;;;;;;;;;;;30.05;21.17;102090.75;5090637;28;1218;-23
2022/12/04 10:23:10;;;;;;;;;;;;;;;30.04;21.22;102083.66;5079383;28;1204;-22
2022/12/04 10:25:36;;;;;;;;;;;;;;;30.09;21.08;102077.69;5079338;28;1913;-22
2022/12/04 10:28:20;;;;;;;;;;;;;;;30.22;20.97;102078.06;5079393;28;1270;-23
2022/12/04 10:30:45;;;;;;;;;;;;;;;30.39;20.66;102078.03;5096954;28;2457;-23
2022/12/04 10:33:25;;;;;;;;;;;;;;;30.55;20.75;102074.41;5096448;28;1251;-23
2022/12/04 10:35:51;;;;;;;;;;;;;;;30.53;20.47;102071.03;5079529;28;1188;-22
2022/12/04 10:38:35;;;;;;;;;;;;;;;30.54;20.58;102064.59;5097247;28;1242;-23
2022/12/04 10:41:04;;;;;;;;;;;;;;;30.49;20.62;102064.25;5097200;28;1140;-22
2022/12/04 10:43:43;;;;;;;;;;;;;;;30.25;20.79;102068.72;5079065;28;1254;-24
2022/12/04 10:46:12;;;;;;;;;;;;;;;30.14;21.18;102072.63;5096046;28;1963;-22
2022/12/04 10:48:37;;;;;;;;;;;;;;;30.49;20.65;102065.09;5097462;28;1202;-23
2022/12/04 10:51:02;;;;;;;;;;;;;;;30.35;20.85;102061.22;5097142;28;1274;-23
2022/12/04 10:53:29;;;;;;;;;;;;;;;30.14;21.01;102054.47;5079454;28;1250;-23
2022/12/04 10:55:54;;;;;;;;;;;;;;;29.92;21.38;102053.28;5096568;28;1254;-23
2022/12/04 10:58:19;;;;;;;;;;;;;;;29.84;21.33;102045.16;5076400;28;1058;-22
2022/12/04 11:00:45;;;;;;;;;;;;;;;29.96;21.16;102048.38;5078158;28;2335;-22
2022/12/04 11:03:23;;;;;;;;;;;;;;;29.73;21.60;102049.91;5078125;28;1324;-22
2022/12/04 11:05:55;;;;;;;;;;;;;;;30.33;20.74;102055.13;5096831;28;1905;-23
2022/12/04 11:08:25;;;;;;;;;;;;;;;30.14;21.01;102054.47;5096101;28;1143;-23
2022/12/04 11:11:05;;;;;;;;;;;;;;;29.92;21.32;102042.44;5096980;28;1158;-23
2022/12/04 11:13:30;;;;;;;;;;;;;;;29.84;21.39;102035.16;5096802;28;1095;-22
2022/12/04 11:15:55;;;;;;;;;;;;;;;29.73;21.61;102041.78;5086100;28;1087;-23
2022/12/04 11:18:22;;;;;;;;;;;;;;;30.06;21.30;102032.78;5092919;28;1143;-24
2022/12/04 11:20:55;;;;;;;;;;;;;;;30.31;20.88;102035.47;5075052;28;1273;-22
2022/12/04 11:23:20;;;;;;;;;;;;;;;30.42;20.94;102029.66;5078287;28;1210;-22
2022/12/04 11:25:49;;;;;;;;;;;;;;;30.47;20.71;102031.84;5096798;28;1910;-23
2022/12/04 11:28:16;;;;;;;;;;;;;;;30.55;20.79;102028.25;5064508;28;1111;-23
2022/12/04 11:30:45;;;;;;;;;;;;;;;30.56;20.69;102038.09;5082510;28;1131;-22
2022/12/04 11:33:24;;;;;;;;;;;;;;;30.36;20.76;102035.78;5095979;28;1131;-23
2022/12/04 11:35:50;;;;;;;;;;;;;;;30.22;20.98;102031.91;5082765;28;1064;-23
2022/12/04 11:38:16;;;;;;;;;;;;;;;30.38;20.90;102030.19;5096533;28;1182;-23
2022/12/04 11:40:46;;;;;;;;;;;;;;;30.09;20.87;102029.72;5096421;28;1115;-22
2022/12/04 11:43:14;;;;;;;;;;;;;;;28.77;22.36;102028.50;5096808;28;1186;-22
2022/12/04 11:45:40;;;;;;;;;;;;;;;29.72;21.72;102023.81;5081443;28;1977;-23
2022/12/04 11:48:15;;;;;;;;;;;;;;;29.94;21.37;102019.56;5096067;28;1131;-22
2022/12/04 11:50:53;;;;;;;;;;;;;;;29.91;21.50;102027.19;5096142;28;1162;-22
2022/12/04 11:53:37;;;;;;;;;;;;;;;29.77;21.60;102026.88;5078323;28;1159;-22
2022/12/04 11:56:14;;;;;;;;;;;;;;;29.65;21.84;102014.66;5096123;28;1091;-22
2022/12/04 11:58:43;;;;;;;;;;;;;;;29.74;21.89;102023.63;5077647;28;1002;-22
2022/12/04 12:01:09;;;;;;;;;;;;;;;30.02;21.31;102012.41;5091051;28;1805;-23
2022/12/04 12:03:37;;;;;;;;;;;;;;;30.17;21.15;102021.56;5086721;28;1155;-22
2022/12/04 12:06:23;;;;;;;;;;;;;;;30.35;21.28;102022.38;5074857;28;1953;-23
2022/12/04 12:08:48;;;;;;;;;;;;;;;30.47;20.88;102021.00;5072538;28;1297;-22
2022/12/04 12:11:13;;;;;;;;;;;;;;;30.48;20.74;102013.69;5089304;28;1143;-22
2022/12/04 12:13:51;;;;;;;;;;;;;;;30.47;20.75;102022.84;5081761;28;1146;-24
2022/12/04 12:16:19;;;;;;;;;;;;;;;30.57;20.58;102023.50;5095449;28;1195;-22
2022/12/04 12:19:07;;;;;;;;;;;;;;;30.29;21.06;102016.66;5095602;28;1155;-25
2022/12/04 12:21:32;;;;;;;;;;;;;;;30.27;21.03;102018.69;5077903;28;1116;-22
2022/12/04 12:24:10;;;;;;;;;;;;;;;30.46;20.75;102022.03;5089385;28;1139;-22
2022/12/04 12:26:43;;;;;;;;;;;;;;;29.66;21.29;102008.22;5089826;28;1914;-23
2022/12/04 12:29:14;;;;;;;;;;;;;;;29.52;21.87;102007.00;5064519;28;1171;-23
2022/12/04 12:31:49;;;;;;;;;;;;;;;30.03;21.40;102023.09;5083693;28;2236;-23
2022/12/04 12:34:20;;;;;;;;;;;;;;;30.22;21.12;102023.78;5092600;28;936;-24
2022/12/04 12:36:46;;;;;;;;;;;;;;;30.10;21.25;102027.81;5068165;28;1171;-23
2022/12/04 12:39:13;;;;;;;;;;;;;;;30.08;21.18;102021.75;5081147;28;1259;-23
2022/12/04 12:41:42;;;;;;;;;;;;;;;30.19;21.13;102018.66;5082062;28;1154;-23
2022/12/04 12:44:16;;;;;;;;;;;;;;;30.35;20.83;102011.50;5099460;28;1178;-22
2022/12/04 12:46:47;;;;;;;;;;;;;;;30.50;20.65;102022.50;5081150;28;1906;-23
2022/12/04 12:49:16;;;;;;;;;;;;;;;30.60;20.48;102016.84;5068498;28;1095;-25
2022/12/04 12:51:44;;;;;;;;;;;;;;;30.62;20.33;102025.66;5099542;28;1175;-22
2022/12/04 12:54:09;;;;;;;;;;;;;;;30.73;20.45;102029.88;5099530;28;1139;-22
2022/12/04 12:56:37;;;;;;;;;;;;;;;30.75;20.26;102031.38;5099828;28;1000;-23
2022/12/04 12:59:02;;;;;;;;;;;;;;;30.74;20.24;102029.72;5080175;28;1016;-23
2022/12/04 13:01:31;;;;;;;;;;;;;;;30.34;20.32;102029.69;5079871;28;2325;-23